Aviation Digital Data Service (ADDS)

Output produced by METARs form (0558 UTC 27 February 2015)
found at http://aviationweather.gov/adds/metars/
 
KPHL 270534Z 2706/2812 VRB03KT P6SM OVC050 
     FM271500 33011KT P6SM FEW050 
     FM280000 33005KT P6SM SCT200